createdAt,value
2023-02-14T03:47:11.232Z,101814.50
2023-02-14T03:50:18.559Z,101814.50
2023-02-14T03:53:25.531Z,101822.56
2023-02-14T03:56:53.732Z,101827.91
2023-02-14T03:59:57.023Z,101835.78
2023-02-14T04:03:06.795Z,101837.59
2023-02-14T04:06:09.801Z,101825.31
2023-02-14T04:09:12.384Z,101824.78
2023-02-14T04:12:18.230Z,101828.81
2023-02-14T04:15:22.042Z,101825.53
2023-02-14T04:18:43.095Z,101822.56
2023-02-14T04:21:45.253Z,101823.87
2023-02-14T04:24:48.114Z,101812.16
2023-02-14T04:27:50.413Z,101822.22
2023-02-14T04:30:52.908Z,101824.44
2023-02-14T04:33:55.130Z,101820.91
2023-02-14T04:36:57.625Z,101823.31
2023-02-14T04:40:00.024Z,101830.66
2023-02-14T04:43:04.530Z,101832.28
2023-02-14T04:46:06.710Z,101826.25
2023-02-14T04:49:09.157Z,101831.38
2023-02-14T04:52:13.119Z,101827.75
2023-02-14T04:55:15.639Z,101829.91
2023-02-14T04:58:18.473Z,101828.09
2023-02-14T05:01:20.994Z,101824.78
2023-02-14T05:04:23.533Z,101820.03
2023-02-14T05:07:26.362Z,101826.63
2023-02-14T05:10:29.188Z,101818.59
2023-02-14T05:13:34.795Z,101831.56
2023-02-14T05:16:38.426Z,101822.97
2023-02-14T05:19:41.036Z,101827.53
2023-02-14T05:22:43.176Z,101829.91
2023-02-14T05:25:48.599Z,101833.22
2023-02-14T05:28:50.768Z,101828.66
2023-02-14T05:31:53.632Z,101826.63
2023-02-14T05:34:55.779Z,101827.00
2023-02-14T05:37:58.244Z,101827.03
2023-02-14T05:41:01.528Z,101830.66
2023-02-14T05:44:04.071Z,101834.16
2023-02-14T05:47:06.224Z,101827.94
2023-02-14T05:50:09.313Z,101836.53
2023-02-14T05:53:12.801Z,101838.00
2023-02-14T05:56:15.338Z,101841.31
2023-02-14T05:59:17.664Z,101836.00
2023-02-14T06:02:20.178Z,101841.31
2023-02-14T06:05:22.676Z,101843.84
2023-02-14T06:08:25.455Z,101846.75
2023-02-14T06:11:28.663Z,101848.62
2023-02-14T06:14:30.781Z,101845.66
2023-02-14T06:17:33.490Z,101846.22
2023-02-14T06:20:36.053Z,101844.94
2023-02-14T06:23:38.531Z,101858.62
2023-02-14T06:26:40.747Z,101865.19
2023-02-14T06:29:43.355Z,101856.84
2023-02-14T06:32:45.486Z,101861.69
2023-02-14T06:35:47.988Z,101862.28
2023-02-14T06:38:50.582Z,101862.56
2023-02-14T06:41:53.107Z,101870.13
2023-02-14T06:44:55.259Z,101873.44
2023-02-14T06:47:57.939Z,101878.44
2023-02-14T06:51:00.598Z,101884.16
2023-02-14T06:54:03.300Z,101883.72
2023-02-14T06:57:05.886Z,101881.34
2023-02-14T07:00:10.381Z,101892.44
2023-02-14T07:03:12.619Z,101891.31
2023-02-14T07:06:15.114Z,101890.16
2023-02-14T07:09:18.311Z,101890.44
2023-02-14T07:12:20.832Z,101892.19
2023-02-14T07:15:22.970Z,101894.87
2023-02-14T07:18:25.445Z,101893.72
2023-02-14T07:21:27.557Z,101887.75
2023-02-14T07:24:30.037Z,101889.72
2023-02-14T07:27:33.150Z,101892.16
2023-02-14T07:30:35.734Z,101893.81
2023-02-14T07:33:38.792Z,101895.50
2023-02-14T07:36:41.576Z,101905.72
2023-02-14T07:39:44.415Z,101900.78
2023-02-14T07:42:54.537Z,101899.34
2023-02-14T07:45:56.837Z,101902.22
2023-02-14T07:48:59.368Z,101902.91
2023-02-14T07:52:01.665Z,101905.09
2023-02-14T07:55:04.460Z,101907.56
2023-02-14T07:58:07.083Z,101915.84
2023-02-14T08:01:09.609Z,101907.47
2023-02-14T08:04:13.877Z,101905.00
2023-02-14T08:07:16.158Z,101901.44
2023-02-14T08:10:18.942Z,101904.97
2023-02-14T08:13:21.387Z,101900.81
2023-02-14T08:16:23.876Z,101903.44
2023-02-14T08:19:26.100Z,101888.09
2023-02-14T08:22:28.483Z,101891.44
2023-02-14T08:25:33.918Z,101886.91
2023-02-14T08:28:36.678Z,101893.53
2023-02-14T08:31:39.181Z,101885.34
2023-02-14T08:34:41.682Z,101897.97
2023-02-14T08:37:43.809Z,101900.00
2023-02-14T08:40:46.901Z,101903.50
2023-02-14T08:43:49.982Z,101902.88
2023-02-14T08:46:52.599Z,101911.50
2023-02-14T08:49:54.828Z,101908.59
2023-02-14T08:52:57.360Z,101903.84
2023-02-14T08:56:06.003Z,101906.06
2023-02-14T08:59:08.391Z,101909.19
2023-02-14T09:02:13.523Z,101906.66
2023-02-14T09:05:16.004Z,101906.94
2023-02-14T09:08:18.194Z,101899.50
2023-02-14T09:11:23.356Z,101899.78
2023-02-14T09:14:25.560Z,101907.59
2023-02-14T09:17:28.077Z,101899.84
2023-02-14T09:20:31.023Z,101905.75
2023-02-14T09:23:33.492Z,101914.59
2023-02-14T09:26:37.026Z,101895.88
2023-02-14T09:29:39.508Z,101902.88
2023-02-14T09:32:41.633Z,101890.97
2023-02-14T09:35:44.062Z,101896.25
2023-02-14T09:38:46.598Z,101891.63
2023-02-14T09:42:10.324Z,101888.44
2023-02-14T09:45:15.738Z,101900.09
2023-02-14T09:48:32.759Z,101912.25
2023-02-14T09:51:37.509Z,101902.28
2023-02-14T09:54:46.124Z,101904.91
2023-02-14T09:58:17.564Z,101907.16
2023-02-14T10:01:44.889Z,101904.63
2023-02-14T10:05:07.450Z,101901.25
2023-02-14T10:08:26.005Z,101914.03
2023-02-14T10:11:28.620Z,101906.41
2023-02-14T10:14:36.517Z,101898.28
2023-02-14T10:18:05.067Z,101890.44
2023-02-14T10:21:14.093Z,101886.69
2023-02-14T10:24:23.116Z,101889.53
2023-02-14T10:27:42.258Z,101875.56
2023-02-14T10:30:58.131Z,101886.50
2023-02-14T10:34:20.508Z,101879.34
2023-02-14T10:37:48.289Z,101868.75
2023-02-14T10:41:14.018Z,101871.94
2023-02-14T10:44:21.694Z,101868.94
2023-02-14T10:47:36.873Z,101867.41
2023-02-14T10:50:48.421Z,101861.59
2023-02-14T10:54:20.582Z,101852.91
2023-02-14T10:57:37.263Z,101845.72
2023-02-14T11:00:47.118Z,101856.19
2023-02-14T11:03:56.150Z,101850.34
2023-02-14T11:06:58.546Z,101834.25
2023-02-14T11:10:01.725Z,101828.09
2023-02-14T11:13:31.680Z,101820.19
2023-02-14T11:16:36.972Z,101822.41
2023-02-14T11:19:39.235Z,101825.06
2023-02-14T11:22:41.745Z,101827.38
2023-02-14T11:25:51.366Z,101821.09
2023-02-14T11:29:02.557Z,101817.09
2023-02-14T11:32:26.081Z,101821.19
2023-02-14T11:35:34.536Z,101814.31
2023-02-14T11:38:39.920Z,101814.75
2023-02-14T11:41:53.475Z,101821.38
2023-02-14T11:44:56.314Z,101820.59
2023-02-14T11:48:36.754Z,101818.06
2023-02-14T11:51:45.645Z,101817.16
2023-02-14T11:54:49.504Z,101812.69
2023-02-14T11:57:52.034Z,101814.16
2023-02-14T12:00:54.757Z,101810.22
2023-02-14T12:04:03.276Z,101813.59
2023-02-14T12:07:17.587Z,101821.22
2023-02-14T12:10:19.970Z,101825.94
2023-02-14T12:13:26.084Z,101827.50
2023-02-14T12:16:46.213Z,101829.63
2023-02-14T12:20:16.619Z,101827.06
2023-02-14T12:23:40.147Z,101833.47
2023-02-14T12:27:07.103Z,101834.66
2023-02-14T12:30:14.217Z,101845.72
2023-02-14T12:33:21.866Z,101835.50
2023-02-14T12:37:00.376Z,101833.13
2023-02-14T12:40:16.483Z,101819.53
2023-02-14T12:43:51.384Z,101818.69
2023-02-14T12:47:04.873Z,101815.34
2023-02-14T12:50:29.521Z,101814.84
2023-02-14T12:53:50.744Z,101810.88
2023-02-14T12:56:56.068Z,101804.44
2023-02-14T13:00:07.113Z,101797.28
2023-02-14T13:03:18.840Z,101796.03
2023-02-14T13:06:30.267Z,101796.56
2023-02-14T13:10:09.237Z,101802.63
2023-02-14T13:13:20.582Z,101796.22
2023-02-14T13:16:43.815Z,101792.53
2023-02-14T13:20:01.379Z,101791.97
2023-02-14T13:23:11.410Z,101790.13
2023-02-14T13:26:31.781Z,101788.03
2023-02-14T13:29:45.708Z,101793.72
2023-02-14T13:32:50.431Z,101781.06
2023-02-14T13:36:00.664Z,101790.44
2023-02-14T13:39:03.604Z,101778.81
2023-02-14T13:42:06.653Z,101790.03
2023-02-14T13:45:40.483Z,101789.06
2023-02-14T13:48:54.859Z,101775.44
2023-02-14T13:51:59.830Z,101780.62
2023-02-14T13:55:08.931Z,101783.47
2023-02-14T13:58:29.556Z,101786.53
2023-02-14T14:01:39.202Z,101788.38
2023-02-14T14:04:41.722Z,101784.50
2023-02-14T14:07:43.889Z,101787.38
2023-02-14T14:10:55.416Z,101786.19
2023-02-14T14:14:29.606Z,101784.38
2023-02-14T14:17:38.383Z,101793.50
2023-02-14T14:20:50.439Z,101790.50
2023-02-14T14:24:21.422Z,101786.19
2023-02-14T14:27:40.200Z,101789.09
2023-02-14T14:30:44.827Z,101783.91
2023-02-14T14:33:57.084Z,101786.16
2023-02-14T14:37:14.943Z,101785.19
2023-02-14T14:40:29.629Z,101784.84
2023-02-14T14:43:38.306Z,101781.22
2023-02-14T14:46:41.471Z,101782.91
2023-02-14T14:49:44.056Z,101779.13
2023-02-14T14:52:49.852Z,101778.31
2023-02-14T14:55:53.239Z,101766.59
2023-02-14T14:58:55.582Z,101771.94
2023-02-14T15:01:58.062Z,101778.44
2023-02-14T15:05:18.168Z,101769.72
2023-02-14T15:08:30.929Z,101772.72
2023-02-14T15:11:59.106Z,101777.53
2023-02-14T15:15:01.983Z,101787.59
2023-02-14T15:18:06.773Z,101777.50
2023-02-14T15:21:09.310Z,101782.78
2023-02-14T15:24:15.894Z,101780.38
2023-02-14T15:27:22.539Z,101785.97
2023-02-14T15:30:30.643Z,101786.75
2023-02-14T15:33:34.115Z,101786.37
2023-02-14T15:36:36.710Z,101791.38
2023-02-14T15:39:49.173Z,101791.19
2023-02-14T15:42:56.638Z,101786.16
2023-02-14T15:46:19.985Z,101785.03
2023-02-14T15:49:30.102Z,101784.75
2023-02-14T15:52:32.596Z,101779.97
2023-02-14T15:55:36.303Z,101787.03
2023-02-14T15:58:40.485Z,101792.31
2023-02-14T16:01:50.797Z,101798.50
2023-02-14T16:04:54.487Z,101792.59
2023-02-14T16:08:03.636Z,101787.13
2023-02-14T16:11:13.573Z,101804.22
2023-02-14T16:14:31.371Z,101809.72
2023-02-14T16:17:35.301Z,101810.94
2023-02-14T16:20:48.756Z,101811.28
2023-02-14T16:24:15.683Z,101809.75
2023-02-14T16:27:17.864Z,101815.09
2023-02-14T16:30:20.800Z,101817.56
